Time;durP1;ratioP1;P1;durP2;ratioP2;P2;SDS_P1;SDS_P2;PMS_P1;PMS_P2;Temp;Humidity;BMP_temperature;BMP_pressure;BME280_temperature;BME280_humidity;BME280_pressure;Samples;Min_cycle;Max_cycle;Signal;HPM_P1;HPM_P2
2022/03/15 00:00:38;;;;;;;;;19.00;18.33;;;;;10.69;61.86;102391.81;5079577;27;46178;-75
2022/03/15 00:03:04;;;;;;;;;23.00;18.67;;;;;10.73;61.97;102390.97;5079597;28;45314;-75
2022/03/15 00:05:30;;;;;;;;;19.33;18.00;;;;;10.72;61.68;102392.72;5079625;28;45527;-75
2022/03/15 00:07:56;;;;;;;;;20.00;17.00;;;;;10.69;61.95;102402.38;5079576;28;45289;-75
2022/03/15 00:10:22;;;;;;;;;21.00;14.67;;;;;10.59;61.86;102393.56;5079441;28;46242;-75
2022/03/15 00:12:47;;;;;;;;;24.67;22.00;;;;;10.61;61.73;102387.41;5079265;27;45272;-75
2022/03/15 00:15:13;;;;;;;;;23.33;20.00;;;;;10.56;62.04;102381.25;5079395;27;45420;-75
2022/03/15 00:17:42;;;;;;;;;25.67;21.33;;;;;10.59;62.46;102394.44;5079783;27;45227;-75
2022/03/15 00:20:10;;;;;;;;;20.33;20.33;;;;;10.57;62.63;102390.03;5078979;27;45542;-76
2022/03/15 00:22:36;;;;;;;;;29.33;23.33;;;;;10.51;62.26;102380.34;5079256;27;45332;-76
2022/03/15 00:25:07;;;;;;;;;21.33;17.33;;;;;10.56;62.42;102386.53;5079237;27;45292;-76
2022/03/15 00:27:34;;;;;;;;;24.33;20.00;;;;;10.54;62.69;102385.66;5079173;27;45332;-76
2022/03/15 00:30:00;;;;;;;;;25.33;21.33;;;;;10.48;62.53;102382.97;5078878;27;46241;-76
2022/03/15 00:32:26;;;;;;;;;23.67;20.33;;;;;10.43;63.30;102382.97;5078944;27;45439;-76
2022/03/15 00:34:52;;;;;;;;;23.00;21.00;;;;;10.40;63.54;102382.97;5079252;27;45320;-76
2022/03/15 00:37:18;;;;;;;;;26.67;21.67;;;;;10.36;63.08;102378.53;5079224;27;45312;-75
2022/03/15 00:39:44;;;;;;;;;23.00;17.67;;;;;10.29;63.66;102367.06;5078914;27;46513;-76
2022/03/15 00:42:11;;;;;;;;;19.00;17.67;;;;;10.29;63.53;102369.69;5078786;27;45348;-76
2022/03/15 00:44:36;;;;;;;;;25.33;23.00;;;;;10.28;63.54;102367.94;5079083;27;45228;-76
2022/03/15 00:47:02;;;;;;;;;23.00;21.00;;;;;10.31;63.45;102376.72;5079110;27;45241;-76
2022/03/15 00:49:28;;;;;;;;;33.33;23.00;;;;;10.18;64.06;102352.09;5078639;27;47443;-74
2022/03/15 00:51:54;;;;;;;;;22.33;20.67;;;;;10.23;64.40;102372.31;5077562;28;45423;-73
2022/03/15 00:54:20;;;;;;;;;27.00;20.00;;;;;10.16;64.21;102356.47;5078994;27;45424;-76
2022/03/15 00:56:46;;;;;;;;;27.33;23.33;;;;;10.21;64.22;102370.53;5078965;27;45423;-76
2022/03/15 00:59:12;;;;;;;;;24.67;22.00;;;;;10.18;64.16;102373.16;5077806;27;46221;-76
2022/03/15 01:01:38;;;;;;;;;26.33;22.67;;;;;10.01;64.12;102352.91;5078643;27;45353;-76
2022/03/15 01:04:04;;;;;;;;;27.33;20.00;;;;;10.04;64.25;102367.81;5078862;27;45293;-76
2022/03/15 01:06:30;;;;;;;;;28.33;24.67;;;;;9.99;64.38;102359.00;5078759;27;45458;-76
2022/03/15 01:08:55;;;;;;;;;29.00;23.67;;;;;10.00;64.13;102353.75;5078434;27;46022;-76
2022/03/15 01:11:20;;;;;;;;;30.67;22.00;;;;;9.97;64.20;102343.22;5078263;27;45233;-76
2022/03/15 01:13:46;;;;;;;;;26.00;25.00;;;;;10.08;64.14;102353.81;5078498;27;45240;-76
2022/03/15 01:16:12;;;;;;;;;27.00;22.67;;;;;10.06;64.25;102351.19;5078718;27;45335;-76
2022/03/15 01:18:38;;;;;;;;;27.00;22.00;;;;;10.07;63.65;102358.19;5078234;27;46142;-75
2022/03/15 01:21:04;;;;;;;;;26.00;22.33;;;;;10.06;64.04;102348.56;5078019;28;45573;-75
2022/03/15 01:23:30;;;;;;;;;27.00;25.00;;;;;10.08;64.27;102357.31;5078406;27;45414;-75
2022/03/15 01:25:56;;;;;;;;;26.67;25.67;;;;;10.03;63.84;102332.72;5078328;27;45428;-75
2022/03/15 01:28:22;;;;;;;;;31.00;26.00;;;;;10.06;63.82;102343.28;5078349;28;45313;-75
2022/03/15 01:30:48;;;;;;;;;27.33;20.67;;;;;9.99;64.39;102333.59;5078262;27;45352;-75
2022/03/15 01:33:13;;;;;;;;;34.00;29.33;;;;;9.93;64.52;102328.28;5078264;28;45288;-75
2022/03/15 01:35:38;;;;;;;;;29.67;24.00;;;;;9.90;64.66;102315.09;5078352;27;45396;-75
2022/03/15 01:38:04;;;;;;;;;27.33;23.33;;;;;9.75;64.58;102285.22;5077969;28;46730;-74
2022/03/15 01:40:30;;;;;;;;;29.67;22.00;;;;;9.88;64.66;102315.09;5078075;27;45243;-75
2022/03/15 01:42:55;;;;;;;;;24.67;23.00;;;;;9.94;64.36;102317.75;5078046;28;45411;-75
2022/03/15 01:45:30;;;;;;;;;29.33;24.67;;;;;9.90;64.30;102305.50;5078370;27;45378;-75
2022/03/15 01:47:55;;;;;;;;;25.67;22.00;;;;;9.87;64.08;102294.06;5078068;27;45930;-74
2022/03/15 01:50:21;;;;;;;;;28.00;21.67;;;;;9.88;63.87;102286.16;5077814;28;45260;-74
2022/03/15 01:52:46;;;;;;;;;21.33;20.33;;;;;9.96;64.19;102299.34;5078098;27;45338;-74
2022/03/15 01:55:12;;;;;;;;;27.33;21.67;;;;;9.90;64.38;102283.53;5078174;27;45294;-75
2022/03/15 01:57:38;;;;;;;;;20.67;18.67;;;;;9.84;64.09;102271.22;5077604;27;45253;-75
2022/03/15 02:00:04;;;;;;;;;22.00;19.67;;;;;9.83;64.29;102268.59;5077827;28;45519;-75
2022/03/15 02:02:30;;;;;;;;;27.67;23.00;;;;;9.82;64.37;102261.59;5077740;27;45411;-75
2022/03/15 02:04:55;;;;;;;;;27.67;24.67;;;;;9.83;64.13;102253.72;5077945;28;45370;-75
2022/03/15 02:07:21;;;;;;;;;25.33;23.33;;;;;9.91;63.98;102261.63;5077578;28;45399;-75
2022/03/15 02:09:47;;;;;;;;;22.67;18.00;;;;;9.90;63.98;102250.22;5077442;28;45316;-75
2022/03/15 02:12:13;;;;;;;;;23.00;22.00;;;;;9.92;63.87;102261.63;5077717;28;45316;-74
2022/03/15 02:14:38;;;;;;;;;21.33;21.33;;;;;9.93;63.71;102249.34;5077847;27;45375;-74
2022/03/15 02:17:05;;;;;;;;;26.33;19.00;;;;;9.86;63.72;102237.03;5077247;27;47384;-74
2022/03/15 02:19:30;;;;;;;;;23.67;21.33;;;;;9.96;64.18;102240.59;5077207;27;45461;-74
2022/03/15 02:21:57;;;;;;;;;21.33;18.33;;;;;9.96;63.86;102240.59;5077564;27;45348;-74
2022/03/15 02:24:23;;;;;;;;;19.00;15.00;;;;;9.86;64.09;102216.00;5076540;28;45238;-74
2022/03/15 02:26:50;;;;;;;;;21.50;17.50;;;;;9.91;63.86;102224.78;5077134;27;45347;-74
2022/03/15 02:29:16;;;;;;;;;21.00;19.00;;;;;9.99;63.69;102237.97;5077369;27;45327;-73
2022/03/15 02:31:41;;;;;;;;;22.67;17.33;;;;;9.85;63.49;102212.50;5077471;28;45446;-73
2022/03/15 02:34:06;;;;;;;;;19.00;18.67;;;;;9.90;63.33;102215.13;5077436;27;45375;-77
2022/03/15 02:36:32;;;;;;;;;22.00;17.67;;;;;9.89;63.45;102218.63;5075914;28;47353;-76
2022/03/15 02:38:58;;;;;;;;;27.00;19.33;;;;;9.67;63.46;102171.22;5077149;27;45377;-76
2022/03/15 02:41:23;;;;;;;;;23.33;19.33;;;;;9.94;63.69;102220.41;5077262;28;45430;-76
2022/03/15 02:43:48;;;;;;;;;21.67;18.67;;;;;9.81;63.65;102194.06;5077549;27;45312;-78
2022/03/15 02:46:14;;;;;;;;;21.67;16.00;;;;;9.84;63.74;102194.94;5077171;27;46494;-77
2022/03/15 02:48:39;;;;;;;;;21.67;20.33;;;;;9.83;63.73;102190.56;5077206;27;45222;-76
2022/03/15 02:51:08;;;;;;;;;18.00;16.67;;;;;9.93;63.87;102207.25;5077133;27;45213;-77
2022/03/15 02:53:37;;;;;;;;;23.67;17.67;;;;;9.80;63.60;102187.91;5077377;27;45501;-78
2022/03/15 02:56:10;;;;;;;;;21.00;14.67;;;;;9.80;63.67;102181.78;5076838;27;45409;-77
2022/03/15 02:58:37;;;;;;;;;20.00;16.00;;;;;9.79;63.60;102174.75;5076803;27;45389;-75
2022/03/15 03:01:03;;;;;;;;;18.67;15.33;;;;;9.81;63.70;102173.03;5077223;27;45324;-76
2022/03/15 03:03:28;;;;;;;;;17.33;14.33;;;;;9.75;63.88;102172.09;5077166;27;45359;-76
2022/03/15 03:05:54;;;;;;;;;18.67;15.33;;;;;9.81;63.90;102179.16;5076777;28;45569;-76
2022/03/15 03:08:21;;;;;;;;;24.33;15.33;;;;;9.85;63.59;102180.06;5076942;28;45218;-76
2022/03/15 03:10:46;;;;;;;;;17.00;16.00;;;;;9.79;64.34;102172.13;5076974;28;45974;-77
2022/03/15 03:13:12;;;;;;;;;18.00;12.00;;;;;9.82;64.41;102186.19;5077158;27;45335;-76
2022/03/15 03:15:37;;;;;;;;;19.33;18.67;;;;;9.78;64.64;102178.28;5076696;27;46245;-77
2022/03/15 03:18:03;;;;;;;;;17.00;15.33;;;;;9.77;64.93;102180.00;5076649;28;45293;-75
2022/03/15 03:20:29;;;;;;;;;16.33;13.67;;;;;9.64;64.90;102163.28;5076655;27;45319;-75
2022/03/15 03:22:55;;;;;;;;;18.33;15.00;;;;;9.64;64.72;102162.44;5079704;27;45384;-75
2022/03/15 03:25:21;;;;;;;;;21.00;15.67;;;;;9.73;65.07;102181.75;5080249;27;46092;-75
2022/03/15 03:27:49;;;;;;;;;18.33;13.33;;;;;9.71;64.74;102180.00;5080024;27;45489;-76
2022/03/15 03:30:15;;;;;;;;;22.00;17.00;;;;;9.67;65.16;102170.31;5071204;27;45416;-74
2022/03/15 03:32:41;;;;;;;;;22.00;19.33;;;;;9.69;64.85;102176.50;5071161;28;45375;-75
2022/03/15 03:35:06;;;;;;;;;19.00;17.00;;;;;9.71;65.11;102170.34;5059461;28;46633;-75
2022/03/15 03:37:35;;;;;;;;;18.67;14.67;;;;;9.63;65.02;102166.81;5059825;28;45521;-75
2022/03/15 03:40:07;;;;;;;;;17.33;14.67;;;;;9.58;65.39;102152.75;5059817;28;45484;-75
2022/03/15 03:42:36;;;;;;;;;21.33;16.00;;;;;9.55;65.67;102152.75;5059825;28;45222;-75
2022/03/15 03:45:03;;;;;;;;;20.00;18.00;;;;;9.61;65.50;102165.91;5059431;28;45353;-75
2022/03/15 03:47:29;;;;;;;;;21.33;18.67;;;;;9.54;66.17;102153.63;5059669;28;45325;-75
2022/03/15 03:49:55;;;;;;;;;17.00;16.33;;;;;9.56;65.67;102159.78;5059530;28;45723;-75
2022/03/15 03:52:21;;;;;;;;;16.33;14.67;;;;;9.49;65.90;102147.47;5059793;28;45499;-75
2022/03/15 03:54:47;;;;;;;;;11.67;11.33;;;;;9.32;65.61;102119.34;5059366;28;46218;-75
2022/03/15 03:57:12;;;;;;;;;13.00;11.00;;;;;9.49;65.72;102144.84;5059302;28;45479;-75
2022/03/15 03:59:37;;;;;;;;;17.33;15.67;;;;;9.56;65.63;102159.78;5059606;28;45739;-74
2022/03/15 04:02:03;;;;;;;;;13.00;11.00;;;;;9.49;65.81;102147.47;5059682;28;45300;-76
2022/03/15 04:04:29;;;;;;;;;15.00;13.33;;;;;9.46;65.63;102137.81;5059251;28;45369;-76
2022/03/15 04:06:55;;;;;;;;;14.33;11.67;;;;;9.53;65.75;102150.13;5059249;28;45231;-76
2022/03/15 04:09:21;;;;;;;;;13.67;11.00;;;;;9.27;65.74;102112.34;5059223;28;45349;-76
2022/03/15 04:11:46;;;;;;;;;13.00;11.00;;;;;9.50;66.37;102155.38;5059566;28;45305;-75
2022/03/15 04:14:11;;;;;;;;;13.67;13.33;;;;;9.41;65.97;102152.72;5058954;28;46214;-75
2022/03/15 04:16:38;;;;;;;;;17.33;12.67;;;;;9.37;66.35;102145.66;5059139;28;45342;-76
2022/03/15 04:19:04;;;;;;;;;13.00;10.67;;;;;9.39;65.83;102146.53;5074817;28;45447;-73
2022/03/15 04:21:30;;;;;;;;;15.00;12.67;;;;;9.39;65.90;102149.16;5059058;28;45770;-74
2022/03/15 04:23:56;;;;;;;;;15.00;13.00;;;;;9.44;65.75;102155.34;5058959;28;45336;-74
2022/03/15 04:26:23;;;;;;;;;11.33;10.00;;;;;9.40;65.99;102151.81;5058950;28;45446;-75
2022/03/15 04:28:48;;;;;;;;;15.00;11.00;;;;;9.40;65.43;102151.81;5059103;28;45491;-76
2022/03/15 04:31:14;;;;;;;;;12.00;11.00;;;;;9.39;65.99;102142.16;5059073;28;45533;-74
2022/03/15 04:33:40;;;;;;;;;8.67;8.67;;;;;9.40;65.92;102148.31;5057660;28;45505;-74
2022/03/15 04:36:07;;;;;;;;;12.67;11.00;;;;;9.32;65.85;102135.09;5058994;28;45291;-74
2022/03/15 04:38:33;;;;;;;;;11.00;10.33;;;;;9.35;65.72;102143.03;5058874;28;46322;-75
2022/03/15 04:40:59;;;;;;;;;10.67;10.67;;;;;9.37;65.55;102130.75;5059088;28;45275;-75
2022/03/15 04:43:24;;;;;;;;;15.00;10.33;;;;;9.40;65.99;102141.28;5058553;28;45509;-75
2022/03/15 04:45:50;;;;;;;;;13.33;9.33;;;;;9.41;65.58;102137.81;5058594;28;45200;-74
2022/03/15 04:48:23;;;;;;;;;13.00;11.00;;;;;9.36;65.85;102126.38;5058899;28;45244;-76
2022/03/15 04:50:49;;;;;;;;;12.00;10.33;;;;;9.35;65.66;102118.47;5068077;28;45467;-75
2022/03/15 04:53:14;;;;;;;;;11.67;8.33;;;;;9.30;65.75;102107.94;5078027;27;45662;-74
2022/03/15 04:55:40;;;;;;;;;13.67;10.00;;;;;9.44;65.71;102128.16;5078303;27;45460;-75
2022/03/15 04:58:05;;;;;;;;;12.67;9.67;;;;;9.48;65.47;102130.78;5077903;27;45407;-76
2022/03/15 05:00:31;;;;;;;;;6.33;6.33;;;;;9.50;65.67;102130.84;5079052;28;45323;-76
2022/03/15 05:02:56;;;;;;;;;11.00;8.67;;;;;9.47;65.31;102130.78;5077140;28;46316;-75
2022/03/15 05:05:22;;;;;;;;;6.67;6.67;;;;;9.51;65.70;102137.81;5078365;27;45258;-70
2022/03/15 05:07:47;;;;;;;;;9.00;8.33;;;;;9.49;65.59;102132.56;5078915;27;45377;-75
2022/03/15 05:12:56;;;;;;;;;15.00;13.00;;;;;9.39;66.09;102107.13;5078184;28;46029;-75
2022/03/15 05:15:22;;;;;;;;;8.67;7.33;;;;;9.53;65.28;102121.19;5078605;28;45369;-76
2022/03/15 05:17:47;;;;;;;;;13.00;8.67;;;;;9.41;66.39;102100.13;5078629;27;45242;-75
2022/03/15 05:20:14;;;;;;;;;10.67;8.33;;;;;9.49;66.84;102110.66;5078281;27;45407;-76
2022/03/15 05:22:40;;;;;;;;;11.00;7.33;;;;;9.52;66.94;102113.31;5078298;27;47397;-76
2022/03/15 05:25:06;;;;;;;;;9.33;6.00;;;;;9.61;67.02;102118.56;5078338;27;45527;-77
2022/03/15 05:27:34;;;;;;;;;11.33;9.33;;;;;9.64;66.95;102109.84;5078277;27;45253;-75
2022/03/15 05:30:00;;;;;;;;;13.33;9.67;;;;;9.71;67.30;102120.38;5078493;27;45741;-76
2022/03/15 05:32:26;;;;;;;;;16.67;11.67;;;;;9.35;67.67;102052.75;5077978;27;45647;-75
2022/03/15 05:34:51;;;;;;;;;11.67;9.33;;;;;9.69;68.00;102105.47;5077994;27;45272;-75
2022/03/15 05:37:17;;;;;;;;;8.67;8.67;;;;;9.74;68.15;102112.50;5077484;27;45226;-76
2022/03/15 05:39:42;;;;;;;;;10.67;8.67;;;;;9.68;68.27;102099.31;5078439;28;45573;-75
2022/03/15 05:42:11;;;;;;;;;11.67;8.00;;;;;9.59;68.69;102080.91;5078082;28;46431;-75
2022/03/15 05:44:37;;;;;;;;;6.33;6.33;;;;;9.74;69.39;102096.72;5077505;27;45416;-75
2022/03/15 05:47:02;;;;;;;;;8.00;6.67;;;;;9.83;68.87;102097.59;5077815;28;45597;-76
2022/03/15 05:49:28;;;;;;;;;5.33;5.33;;;;;9.85;68.86;102090.63;5078189;27;45236;-76
2022/03/15 05:51:53;;;;;;;;;7.00;7.00;;;;;9.86;69.73;102087.09;5078065;28;46179;-75
2022/03/15 05:54:18;;;;;;;;;9.33;9.33;;;;;9.69;69.61;102053.75;5077670;28;45431;-76
2022/03/15 05:56:45;;;;;;;;;12.00;7.33;;;;;9.97;70.39;102102.91;5077639;28;45273;-76
2022/03/15 05:59:10;;;;;;;;;11.67;7.00;;;;;9.92;70.73;102087.97;5077206;27;45270;-77
2022/03/15 06:01:35;;;;;;;;;9.67;9.67;;;;;10.01;71.41;102104.66;5077428;28;45459;-76
2022/03/15 06:04:01;;;;;;;;;7.33;7.00;;;;;10.01;71.48;102100.28;5077771;27;45336;-76
2022/03/15 06:06:26;;;;;;;;;8.00;7.67;;;;;9.98;71.01;102092.38;5077893;28;45611;-77
2022/03/15 06:08:51;;;;;;;;;5.67;3.33;;;;;9.89;70.84;102076.56;5077461;28;45381;-77
2022/03/15 06:11:19;;;;;;;;;9.67;6.00;;;;;10.06;72.02;102100.28;5076307;28;47165;-75
2022/03/15 06:13:45;;;;;;;;;31.00;21.33;;;;;10.07;73.55;102102.91;5077529;27;45543;-76
2022/03/15 06:16:11;;;;;;;;;12.00;10.33;;;;;9.96;72.26;102080.97;5077701;27;45369;-80
2022/03/15 06:18:36;;;;;;;;;10.33;9.33;;;;;10.11;72.79;102109.94;5077756;27;45380;-75
2022/03/15 06:21:03;;;;;;;;;14.00;8.00;;;;;9.93;74.06;102078.31;5077032;27;45869;-77
2022/03/15 06:23:28;;;;;;;;;12.67;9.00;;;;;10.02;74.68;102091.50;5077387;28;45334;-77
2022/03/15 06:25:54;;;;;;;;;14.33;8.33;;;;;9.82;76.57;102061.69;5077502;27;45369;-75
2022/03/15 06:28:19;;;;;;;;;8.00;8.00;;;;;9.98;75.76;102081.84;5076217;28;45562;-76
2022/03/15 06:30:45;;;;;;;;;8.67;6.00;;;;;10.05;74.53;102087.97;5076911;27;45345;-76
2022/03/15 06:33:11;;;;;;;;;9.33;7.00;;;;;9.81;75.57;102045.00;5077060;27;45252;-75
2022/03/15 06:35:37;;;;;;;;;12.67;8.00;;;;;10.11;76.87;102102.03;5077495;27;45359;-77
2022/03/15 06:38:02;;;;;;;;;11.67;8.67;;;;;10.14;74.60;102092.38;5077536;27;45220;-77
2022/03/15 06:40:29;;;;;;;;;10.33;8.67;;;;;10.09;76.19;102088.00;5076521;27;46374;-75
2022/03/15 06:42:55;;;;;;;;;8.33;8.33;;;;;10.04;77.66;102076.59;5076255;27;45225;-76
2022/03/15 06:45:22;;;;;;;;;9.00;9.00;;;;;10.00;77.73;102074.81;5077257;27;45446;-77
2022/03/15 06:47:47;;;;;;;;;10.33;7.67;;;;;10.08;77.15;102083.63;5076097;28;45506;-76
2022/03/15 06:50:13;;;;;;;;;9.67;8.00;;;;;10.13;77.46;102085.38;5077126;28;45341;-77
2022/03/15 06:52:40;;;;;;;;;7.00;7.00;;;;;10.11;76.71;102083.63;5076924;28;45552;-77
2022/03/15 06:55:07;;;;;;;;;9.00;9.00;;;;;10.04;77.96;102073.97;5077132;27;45358;-79
2022/03/15 06:57:34;;;;;;;;;9.67;7.33;;;;;10.13;78.51;102083.63;5079470;27;45389;-78
2022/03/15 07:00:00;;;;;;;;;11.00;11.00;;;;;10.09;77.17;102061.69;5079864;27;45405;-77
2022/03/15 07:02:26;;;;;;;;;9.00;9.00;;;;;10.16;77.30;102069.59;5079692;27;45533;-76
2022/03/15 07:04:52;;;;;;;;;10.33;7.00;;;;;10.11;76.58;102066.97;5080348;27;45416;-76
2022/03/15 07:07:18;;;;;;;;;12.33;9.00;;;;;10.13;78.35;102062.56;5079886;28;45426;-77
2022/03/15 07:09:44;;;;;;;;;10.00;8.67;;;;;10.13;78.67;102053.78;5080347;27;46138;-76
2022/03/15 07:12:09;;;;;;;;;13.67;8.00;;;;;10.04;75.98;102031.00;5080025;28;45390;-77
2022/03/15 07:14:35;;;;;;;;;8.00;6.00;;;;;10.15;79.08;102052.94;5080074;27;45228;-76
2022/03/15 07:17:00;;;;;;;;;8.33;8.33;;;;;10.12;76.41;102045.00;5080214;27;45225;-77
2022/03/15 07:19:27;;;;;;;;;9.33;7.67;;;;;10.10;76.63;102037.09;5080124;27;47610;-77
2022/03/15 07:21:52;;;;;;;;;11.67;9.00;;;;;10.06;77.60;102034.47;5080091;27;45434;-77
2022/03/15 07:24:18;;;;;;;;;13.33;11.00;;;;;10.09;80.27;102045.91;5080424;27;45279;-78
2022/03/15 07:26:43;;;;;;;;;11.00;9.33;;;;;10.12;79.95;102047.63;5079926;27;45524;-76
2022/03/15 07:29:09;;;;;;;;;14.00;13.00;;;;;10.07;79.90;102050.28;5079813;28;45343;-78
2022/03/15 07:31:34;;;;;;;;;12.67;8.33;;;;;10.05;77.73;102044.16;5080323;27;45256;-78
2022/03/15 07:34:00;;;;;;;;;11.00;9.33;;;;;10.11;77.72;102045.91;5080073;27;45492;-78
2022/03/15 07:36:25;;;;;;;;;9.67;9.67;;;;;10.04;79.81;102034.47;5080008;27;45357;-81
2022/03/15 07:38:50;;;;;;;;;11.33;10.33;;;;;10.15;79.49;102054.66;5078795;28;48233;-81
2022/03/15 07:41:16;;;;;;;;;7.00;7.00;;;;;10.21;79.56;102054.66;5080133;28;45450;-79
2022/03/15 07:43:43;;;;;;;;;13.00;8.00;;;;;10.19;79.21;102048.53;5080140;27;45265;-78
2022/03/15 07:46:08;;;;;;;;;13.00;9.00;;;;;10.26;79.40;102056.41;5079007;28;47037;-82
2022/03/15 07:48:34;;;;;;;;;15.67;13.00;;;;;10.25;79.99;102054.69;5079277;27;45373;-82
2022/03/15 07:50:59;;;;;;;;;13.00;11.67;;;;;10.21;79.70;102042.38;5079800;28;45352;-82
2022/03/15 07:53:25;;;;;;;;;13.33;11.33;;;;;10.24;79.61;102041.53;5079529;27;45439;-79
2022/03/15 07:55:50;;;;;;;;;19.00;16.00;;;;;10.38;77.85;102060.84;5079204;27;45258;-77
2022/03/15 07:58:15;;;;;;;;;10.33;9.33;;;;;10.39;79.55;102056.44;5079292;28;46366;-81
2022/03/15 08:00:41;;;;;;;;;14.67;10.67;;;;;10.36;78.46;102051.19;5079286;27;45246;-77
2022/03/15 08:03:06;;;;;;;;;12.33;11.67;;;;;10.36;79.45;102056.47;5079415;27;45151;-80
2022/03/15 08:05:31;;;;;;;;;16.67;13.00;;;;;10.34;79.46;102059.09;5078969;27;45377;-78
2022/03/15 08:07:57;;;;;;;;;12.67;10.67;;;;;10.10;79.87;102023.94;5078594;27;45613;-80
2022/03/15 08:10:22;;;;;;;;;11.00;8.67;;;;;10.34;79.37;102068.72;5078845;28;45470;-80
2022/03/15 08:12:48;;;;;;;;;15.33;9.00;;;;;10.36;80.48;102064.34;5080414;27;45279;-80
2022/03/15 08:15:13;;;;;;;;;9.00;9.00;;;;;10.22;80.54;102038.91;5079878;27;45398;-81
2022/03/15 08:17:39;;;;;;;;;17.00;13.00;;;;;10.42;79.35;102065.22;5080395;27;46719;-78
2022/03/15 08:20:06;;;;;;;;;8.33;8.00;;;;;10.42;78.05;102062.56;5079694;27;45380;-81
2022/03/15 08:22:31;;;;;;;;;16.67;13.33;;;;;10.36;79.74;102059.97;5079710;27;45334;-81
2022/03/15 08:24:58;;;;;;;;;10.67;10.67;;;;;10.48;79.31;102074.00;5079500;27;46856;-81
2022/03/15 08:27:23;;;;;;;;;12.00;9.33;;;;;10.40;80.73;102060.84;5079269;27;45347;-80
2022/03/15 08:29:49;;;;;;;;;12.67;11.00;;;;;10.41;80.28;102063.47;5079313;27;45366;-78
2022/03/15 08:32:14;;;;;;;;;14.67;14.67;;;;;10.50;79.63;102062.59;5078892;27;45274;-77
2022/03/15 08:34:41;;;;;;;;;15.00;11.33;;;;;10.66;79.68;102067.81;5078798;27;45449;-78
2022/03/15 08:37:07;;;;;;;;;11.33;11.00;;;;;10.58;79.38;102050.28;5079150;27;46290;-78
2022/03/15 08:39:33;;;;;;;;;14.00;10.00;;;;;10.70;78.85;102062.53;5079710;27;45249;-78
2022/03/15 08:41:58;;;;;;;;;12.67;8.67;;;;;10.73;78.34;102057.28;5080040;28;45398;-77
2022/03/15 08:44:24;;;;;;;;;10.00;9.00;;;;;10.78;79.01;102059.91;5079220;28;45187;-76
2022/03/15 08:46:50;;;;;;;;;12.33;10.33;;;;;10.84;79.01;102064.28;5077847;27;45482;-78
2022/03/15 08:49:17;;;;;;;;;9.00;8.00;;;;;10.96;78.13;102073.03;5079010;27;45473;-80
2022/03/15 08:51:43;;;;;;;;;8.00;6.00;;;;;10.87;79.02;102049.31;5096603;27;45479;-81
2022/03/15 08:54:08;;;;;;;;;10.67;9.00;;;;;10.59;78.13;101996.72;5079254;27;45255;-79
2022/03/15 08:56:35;;;;;;;;;7.67;7.33;;;;;11.01;78.48;102064.22;5071908;28;46582;-82
2022/03/15 08:59:01;;;;;;;;;8.33;8.00;;;;;11.12;78.23;102076.50;5079095;27;45420;-73
2022/03/15 09:01:27;;;;;;;;;7.67;5.67;;;;;11.13;78.51;102072.09;5078773;27;45345;-80
2022/03/15 09:03:52;;;;;;;;;8.00;7.00;;;;;11.03;78.07;102054.56;5078541;27;45296;-80
2022/03/15 09:06:17;;;;;;;;;8.67;8.67;;;;;11.12;77.79;102059.78;5078211;28;45427;-80
2022/03/15 09:08:43;;;;;;;;;9.00;9.00;;;;;11.12;78.55;102057.16;5078402;28;45174;-79
2022/03/15 09:11:08;;;;;;;;;16.00;14.67;;;;;11.22;78.15;102066.78;5078819;27;45319;-80
2022/03/15 09:13:35;;;;;;;;;10.33;8.33;;;;;11.14;78.56;102051.00;5078992;27;45395;-80
2022/03/15 09:16:00;;;;;;;;;16.67;13.33;;;;;11.24;78.20;102064.13;5077886;27;45570;-80
2022/03/15 09:18:27;;;;;;;;;16.67;10.00;;;;;11.29;77.89;102059.72;5078004;27;45451;-80
2022/03/15 09:20:53;;;;;;;;;9.00;8.33;;;;;11.33;78.13;102054.41;5077903;28;45461;-80
2022/03/15 09:23:19;;;;;;;;;7.33;7.00;;;;;11.48;76.41;102061.38;5078071;27;45402;-80
2022/03/15 09:25:44;;;;;;;;;8.67;8.00;;;;;11.37;76.69;102039.47;5078297;27;45771;-77
2022/03/15 09:28:10;;;;;;;;;7.33;7.00;;;;;11.54;77.07;102063.09;5077913;28;45356;-77
2022/03/15 09:30:36;;;;;;;;;6.00;6.00;;;;;11.50;77.26;102056.09;5077879;27;45491;-78
2022/03/15 09:33:02;;;;;;;;;7.00;5.67;;;;;11.42;76.73;102035.03;5078580;27;45249;-77
2022/03/15 09:35:28;;;;;;;;;8.00;7.00;;;;;11.53;76.99;102058.72;5078113;27;45415;-81
2022/03/15 09:37:54;;;;;;;;;6.75;5.25;;;;;11.52;77.42;102059.59;5078015;27;45551;-78
2022/03/15 09:40:25;;;;;;;;;8.33;6.33;;;;;11.64;77.29;102066.56;5078198;27;45261;-78
2022/03/15 09:43:03;;;;;;;;;7.00;6.00;;;;;11.70;77.27;102058.63;5077690;28;45450;-80
2022/03/15 09:45:31;;;;;;;;;4.00;4.00;;;;;11.73;75.62;102057.72;5076756;27;45507;-81
2022/03/15 09:47:59;;;;;;;;;6.67;5.33;;;;;11.83;76.41;102059.41;5077728;27;45471;-83
2022/03/15 09:50:25;;;;;;;;;5.33;4.00;;;;;11.87;76.29;102047.97;5077455;27;45344;-81
2022/03/15 09:52:55;;;;;;;;;4.33;4.33;;;;;11.90;75.40;102054.97;5077907;27;45388;-80
2022/03/15 09:55:21;;;;;;;;;5.67;4.00;;;;;11.91;75.33;102049.69;5077969;27;45529;-76
2022/03/15 09:57:47;;;;;;;;;4.33;4.33;;;;;11.88;75.26;102044.44;5077777;27;45896;-78
2022/03/15 10:00:15;;;;;;;;;6.00;4.67;;;;;11.78;75.92;102021.63;5077789;27;45391;-76
2022/03/15 10:02:42;;;;;;;;;3.50;3.50;;;;;11.65;75.48;101984.78;5077501;27;45373;-75
2022/03/15 10:05:09;;;;;;;;;2.50;2.50;;;;;11.91;75.57;102011.84;5076015;28;46549;-79
2022/03/15 10:07:35;;;;;;;;;4.00;1.75;;;;;12.04;74.81;102026.75;5077671;27;45255;-78
2022/03/15 10:10:02;;;;;;;;;3.33;3.33;;;;;12.18;73.71;102032.78;5077964;27;45481;-76
2022/03/15 10:12:27;;;;;;;;;3.00;3.00;;;;;11.80;74.02;101964.44;5078452;27;45242;-77
2022/03/15 10:14:52;;;;;;;;;1.00;1.00;;;;;12.16;73.86;102021.34;5077998;28;45522;-79
2022/03/15 10:17:18;;;;;;;;;2.00;2.00;;;;;12.22;73.83;102019.56;5076944;28;45615;-82
2022/03/15 10:20:12;;;;;;;;;2.00;2.00;;;;;12.40;73.27;102039.63;5076333;28;45390;-82
2022/03/15 10:22:38;;;;;;;;;2.00;2.00;;;;;12.33;72.35;102017.69;5075086;28;45793;-77
2022/03/15 10:25:04;;;;;;;;;2.75;2.25;;;;;12.48;72.39;102021.94;5077380;27;47169;-77
2022/03/15 10:27:35;;;;;;;;;2.00;2.00;;;;;12.53;72.22;102009.53;5077633;28;45340;-80
2022/03/15 10:30:02;;;;;;;;;1.50;1.50;;;;;12.41;71.83;101967.44;5077633;28;45619;-78
2022/03/15 10:32:28;;;;;;;;;4.00;2.25;;;;;12.77;71.29;102004.91;5080234;27;45323;-83
2022/03/15 10:35:08;;;;;;;;;4.00;3.75;;;;;12.93;71.34;102009.09;5081706;27;45406;-82
2022/03/15 10:37:35;;;;;;;;;2.00;2.00;;;;;13.02;70.63;101998.41;5081301;27;45375;-83
2022/03/15 10:40:02;;;;;;;;;3.50;2.00;;;;;12.99;69.33;101985.22;5080932;27;45436;-81
2022/03/15 10:42:27;;;;;;;;;1.75;1.75;;;;;13.04;69.48;101962.25;5081632;27;45453;-79
2022/03/15 10:44:53;;;;;;;;;3.50;2.00;;;;;13.30;69.55;101994.53;5080066;28;45605;-82
2022/03/15 10:47:19;;;;;;;;;2.00;2.00;;;;;13.41;67.93;101997.94;5080472;27;45485;-80
2022/03/15 10:49:59;;;;;;;;;3.25;1.75;;;;;13.56;68.30;102010.03;5080845;27;45407;-79
2022/03/15 10:52:42;;;;;;;;;3.00;3.00;;;;;13.64;67.32;102007.31;5080223;27;45463;-76
2022/03/15 10:55:29;;;;;;;;;1.25;1.00;;;;;13.65;67.56;102009.03;5080816;28;45390;-77
2022/03/15 10:58:01;;;;;;;;;3.50;3.50;;;;;13.91;66.94;102012.16;5080530;27;45306;-76
2022/03/15 11:00:37;;;;;;;;;2.00;2.00;;;;;14.11;65.12;102003.00;5080772;27;45493;-77
2022/03/15 11:03:19;;;;;;;;;4.00;2.75;;;;;14.16;65.80;101987.91;5080872;28;45343;-77
2022/03/15 11:05:47;;;;;;;;;3.25;3.00;;;;;14.35;64.53;101984.91;5080096;28;45516;-77
2022/03/15 11:08:15;;;;;;;;;5.75;2.75;;;;;14.48;64.71;101997.03;5080515;27;45447;-77
2022/03/15 11:10:46;;;;;;;;;2.00;2.00;;;;;14.48;63.56;101988.19;5080774;27;45255;-78
2022/03/15 11:13:12;;;;;;;;;3.50;1.00;;;;;14.50;64.64;101983.75;5080889;28;45302;-77
2022/03/15 11:15:48;;;;;;;;;3.50;2.00;;;;;14.55;64.49;101976.56;5079395;27;46144;-78
2022/03/15 11:18:15;;;;;;;;;3.00;3.00;;;;;14.69;63.58;101974.56;5080212;27;45286;-78